Portada
METAR-TAF:

METAR-TAF

Aeroports :

Gifu, Japó

latitud: 35-23N, longitud: 136-52E, altitud: 39 m

Observació

L'informe es va fer fa 6 hores i 16 minuts, a les 10:16 UTC
Vent 6 kt del Oest/Sud-Oest, variant entre Sud-Oest i Oest
Temperatura 4°C
Humitat 87%
Pressió 1008 hPa
Visibilitat 10 km o més
Escasses núvols a una alçada de 3000 ft
Núvols disperses a una alçada de 5000 ft

METAR: RJNG 171016Z 25006KT 220V280 9999 FEW030 SCT050 04/02 Q1008 RMK 2CU030 3SC050 A2977

Hora: 01:32 (16:32 UTC)


TAF: manca

Observacions i pronòstics meteorològics de més de 4000 aeroports (METAR i TAF).

Les estacions disponibles són els punts grocs i vermells al mapa.

Posi el ratolí al punt desitjat per veure el nom de l'estació.

Feu clic per veure les observacions i els pronòstics meteorològics.

Per canviar el mapa: feu clic els botons verds amb una creu de color negre per apropar; al botó verd amb un guió per allunyar la imatge; o en les fletxes verdes per a mapes adjacents.


METAR-TAF: